Time;durP1;ratioP1;P1;durP2;ratioP2;P2;SDS_P1;SDS_P2;PMS_P1;PMS_P2;Temp;Humidity;BMP_temperature;BMP_pressure;BME280_temperature;BME280_humidity;BME280_pressure;Samples;Min_cycle;Max_cycle;Signal;HPM_P1;HPM_P2
2021/06/19 00:00:29;;;;;;;9.90;9.00;;;;;;;;;;5071058;28;20201;-57
2021/06/19 00:02:54;;;;;;;9.70;9.10;;;;;;;;;;5069377;28;20583;-57
2021/06/19 00:05:20;;;;;;;8.97;8.37;;;;;;;;;;5073803;28;20545;-58
2021/06/19 00:07:45;;;;;;;10.77;9.97;;;;;;;;;;5049348;28;20181;-57
2021/06/19 00:10:12;;;;;;;10.70;10.00;;;;;;;;;;5067379;28;20182;-58
2021/06/19 00:12:37;;;;;;;10.40;9.60;;;;;;;;;;5075289;28;20172;-58
2021/06/19 00:15:04;;;;;;;10.47;9.67;;;;;;;;;;5080605;28;21026;-58
2021/06/19 00:17:30;;;;;;;10.00;9.40;;;;;;;;;;5053269;28;20338;-57
2021/06/19 00:19:55;;;;;;;9.57;8.97;;;;;;;;;;5081634;28;20632;-58
2021/06/19 00:22:20;;;;;;;10.33;9.60;;;;;;;;;;5050686;28;20595;-57
2021/06/19 00:24:45;;;;;;;9.67;8.97;;;;;;;;;;5076824;28;20176;-57
2021/06/19 00:27:10;;;;;;;10.80;10.00;;;;;;;;;;5075419;28;20177;-57
2021/06/19 00:29:36;;;;;;;10.57;9.57;;;;;;;;;;5080041;28;20182;-58
2021/06/19 00:32:01;;;;;;;11.00;10.00;;;;;;;;;;5074723;28;20247;-57
2021/06/19 00:34:26;;;;;;;10.30;9.33;;;;;;;;;;5079517;28;20258;-57
2021/06/19 00:36:51;;;;;;;10.33;9.53;;;;;;;;;;5067620;28;20190;-57
2021/06/19 00:39:17;;;;;;;8.83;8.13;;;;;;;;;;5068367;28;20210;-57
2021/06/19 00:41:42;;;;;;;9.07;8.30;;;;;;;;;;5056238;28;20172;-57
2021/06/19 00:44:15;;;;;;;8.90;8.30;;;;;;;;;;5052081;28;20283;-57
2021/06/19 00:46:40;;;;;;;8.57;7.97;;;;;;;;;;5066243;28;20277;-57
2021/06/19 00:49:05;;;;;;;8.97;8.37;;;;;;;;;;5067370;28;21095;-57
2021/06/19 00:51:30;;;;;;;10.25;9.55;;;;;;;;;;5067923;28;20547;-58
2021/06/19 00:53:56;;;;;;;9.70;9.00;;;;;;;;;;5066194;28;20249;-57
2021/06/19 00:56:22;;;;;;;9.50;8.77;;;;;;;;;;5070702;28;20220;-56
2021/06/19 00:58:47;;;;;;;9.50;8.90;;;;;;;;;;5059471;28;20578;-56
2021/06/19 01:01:12;;;;;;;9.50;8.90;;;;;;;;;;5067017;28;20177;-58
2021/06/19 01:03:37;;;;;;;9.73;9.02;;;;;;;;;;5074273;28;20180;-57
2021/06/19 01:06:03;;;;;;;9.63;8.97;;;;;;;;;;5065040;28;20184;-58
2021/06/19 01:08:28;;;;;;;10.40;9.60;;;;;;;;;;5064862;28;20667;-58
2021/06/19 01:10:54;;;;;;;9.10;8.50;;;;;;;;;;5050766;28;20181;-58
2021/06/19 01:13:19;;;;;;;9.30;8.60;;;;;;;;;;5055800;28;20171;-58
2021/06/19 01:15:44;;;;;;;9.43;8.80;;;;;;;;;;5077207;28;20254;-59
2021/06/19 01:18:09;;;;;;;9.40;8.80;;;;;;;;;;5086581;28;20756;-59
2021/06/19 01:20:36;;;;;;;9.40;8.70;;;;;;;;;;5068855;28;20178;-58
2021/06/19 01:23:01;;;;;;;9.73;9.03;;;;;;;;;;5063675;28;20685;-58
2021/06/19 01:25:27;;;;;;;9.17;8.57;;;;;;;;;;5066650;28;20627;-58
2021/06/19 01:27:53;;;;;;;9.10;8.50;;;;;;;;;;5070826;28;20171;-59
2021/06/19 01:30:19;;;;;;;9.83;9.13;;;;;;;;;;5061263;28;20178;-58
2021/06/19 01:32:45;;;;;;;9.47;8.87;;;;;;;;;;5066232;28;20175;-59
2021/06/19 01:35:10;;;;;;;9.67;8.97;;;;;;;;;;5064126;28;20605;-58
2021/06/19 01:37:37;;;;;;;9.10;8.20;;;;;;;;;;5067412;28;20181;-58
2021/06/19 01:40:07;;;;;;;8.93;8.33;;;;;;;;;;5069473;28;20201;-58
2021/06/19 01:42:33;;;;;;;9.07;8.47;;;;;;;;;;5069102;28;20649;-58
2021/06/19 01:44:58;;;;;;;9.20;8.50;;;;;;;;;;5052686;28;20697;-58
2021/06/19 01:47:27;;;;;;;8.98;8.38;;;;;;;;;;5057544;28;20189;-58
2021/06/19 01:49:52;;;;;;;9.43;8.80;;;;;;;;;;5049454;28;20184;-58
2021/06/19 01:52:18;;;;;;;9.80;8.98;;;;;;;;;;5060710;28;20643;-58
2021/06/19 01:54:43;;;;;;;8.40;7.80;;;;;;;;;;5052432;28;20697;-58
2021/06/19 01:57:08;;;;;;;9.95;9.15;;;;;;;;;;5066921;28;21140;-58
2021/06/19 01:59:33;;;;;;;8.93;8.23;;;;;;;;;;5070277;28;20206;-58
2021/06/19 02:01:59;;;;;;;9.63;8.93;;;;;;;;;;5065086;28;20168;-58
2021/06/19 02:04:25;;;;;;;9.60;8.90;;;;;;;;;;5058985;28;20181;-58
2021/06/19 02:06:50;;;;;;;9.40;8.70;;;;;;;;;;5071870;28;20223;-57
2021/06/19 02:09:15;;;;;;;9.37;8.57;;;;;;;;;;5083259;28;20178;-57
2021/06/19 02:11:40;;;;;;;10.07;9.17;;;;;;;;;;5061560;28;20175;-57
2021/06/19 02:14:06;;;;;;;9.87;9.17;;;;;;;;;;5073130;28;20210;-59
2021/06/19 02:16:31;;;;;;;9.50;8.80;;;;;;;;;;5078781;28;20676;-58
2021/06/19 02:18:56;;;;;;;10.20;8.47;;;;;;;;;;5058619;28;20239;-58
2021/06/19 02:21:22;;;;;;;9.37;8.67;;;;;;;;;;5077038;28;20236;-59
2021/06/19 02:23:47;;;;;;;9.20;8.50;;;;;;;;;;5069474;28;20202;-58
2021/06/19 02:26:12;;;;;;;8.40;7.90;;;;;;;;;;5060129;28;20203;-58
2021/06/19 02:28:37;;;;;;;9.20;8.60;;;;;;;;;;5083104;28;20185;-58
2021/06/19 02:31:03;;;;;;;9.83;9.20;;;;;;;;;;5070262;28;20195;-59
2021/06/19 02:33:28;;;;;;;8.60;8.10;;;;;;;;;;5062889;28;20836;-58
2021/06/19 02:35:53;;;;;;;9.50;8.40;;;;;;;;;;5051092;28;20190;-59
2021/06/19 02:38:19;;;;;;;8.80;8.10;;;;;;;;;;5064712;28;20237;-58
2021/06/19 02:40:46;;;;;;;9.47;8.77;;;;;;;;;;5089146;28;20174;-58
2021/06/19 02:46:14;;;;;;;9.17;8.57;;;;;;;;;;5060616;28;20595;-58
2021/06/19 02:48:40;;;;;;;8.83;8.13;;;;;;;;;;5074773;28;20616;-58
2021/06/19 02:51:05;;;;;;;9.23;8.60;;;;;;;;;;5061343;28;20198;-57
2021/06/19 02:53:30;;;;;;;8.73;8.13;;;;;;;;;;5059594;28;20660;-57
2021/06/19 02:55:55;;;;;;;8.88;8.27;;;;;;;;;;5067658;28;20688;-57
2021/06/19 03:07:29;;;;;;;9.80;9.10;;;;;;;;;;5058132;28;20590;-59
2021/06/19 03:09:54;;;;;;;9.07;8.38;;;;;;;;;;5058312;28;20604;-59
2021/06/19 03:12:19;;;;;;;8.70;8.00;;;;;;;;;;5081598;28;20182;-59
2021/06/19 03:15:04;;;;;;;9.35;8.57;;;;;;;;;;5084020;28;20196;-59
2021/06/19 03:17:30;;;;;;;8.83;8.23;;;;;;;;;;5063560;28;20206;-57
2021/06/19 03:22:59;;;;;;;9.10;8.50;;;;;;;;;;5068626;28;20639;-59
2021/06/19 03:25:26;;;;;;;9.47;8.67;;;;;;;;;;5072782;28;20695;-58
2021/06/19 03:27:51;;;;;;;9.67;8.90;;;;;;;;;;5052118;28;20573;-59
2021/06/19 03:30:18;;;;;;;9.23;8.50;;;;;;;;;;5058166;28;20617;-58
2021/06/19 03:32:44;;;;;;;8.33;7.73;;;;;;;;;;5067704;28;20310;-59
2021/06/19 03:35:09;;;;;;;8.77;8.07;;;;;;;;;;5073438;28;21135;-58
2021/06/19 03:37:34;;;;;;;9.10;8.30;;;;;;;;;;5067713;28;20176;-58
2021/06/19 03:39:59;;;;;;;8.53;7.93;;;;;;;;;;5067420;28;20234;-60
2021/06/19 03:42:25;;;;;;;8.10;7.50;;;;;;;;;;5066565;28;20188;-60
2021/06/19 03:44:50;;;;;;;8.83;8.10;;;;;;;;;;5068860;28;20251;-59
2021/06/19 03:47:15;;;;;;;8.50;7.90;;;;;;;;;;5061550;28;20691;-59
2021/06/19 03:49:40;;;;;;;8.60;8.00;;;;;;;;;;5060563;28;20186;-58
2021/06/19 03:52:05;;;;;;;8.70;8.10;;;;;;;;;;5082652;28;20557;-59
2021/06/19 03:54:31;;;;;;;8.90;8.30;;;;;;;;;;5074788;28;20220;-59
2021/06/19 03:56:56;;;;;;;8.05;7.55;;;;;;;;;;5069156;28;20249;-58
2021/06/19 03:59:21;;;;;;;8.15;7.55;;;;;;;;;;5066351;28;20252;-59
2021/06/19 04:01:46;;;;;;;8.55;7.85;;;;;;;;;;5069433;28;20178;-58
2021/06/19 04:04:11;;;;;;;8.50;7.90;;;;;;;;;;5069926;28;20630;-59
2021/06/19 04:06:36;;;;;;;8.07;7.47;;;;;;;;;;5072324;28;20161;-59
2021/06/19 04:15:08;;;;;;;8.80;8.20;;;;;;;;;;5057781;28;21376;-59
2021/06/19 04:17:34;;;;;;;8.03;7.57;;;;;;;;;;5061130;28;20589;-59
2021/06/19 04:19:59;;;;;;;8.47;7.87;;;;;;;;;;5059346;28;20669;-59
2021/06/19 04:25:27;;;;;;;7.90;7.10;;;;;;;;;;5062463;28;20179;-59
2021/06/19 04:27:53;;;;;;;8.97;8.17;;;;;;;;;;5058557;28;20659;-59
2021/06/19 04:30:20;;;;;;;9.13;8.43;;;;;;;;;;5068074;28;20171;-59
2021/06/19 04:32:45;;;;;;;8.50;7.80;;;;;;;;;;5058036;28;20605;-59
2021/06/19 04:35:12;;;;;;;9.18;7.13;;;;;;;;;;5074504;28;20667;-59
2021/06/19 04:37:37;;;;;;;7.90;7.30;;;;;;;;;;5075609;28;20171;-59
2021/06/19 04:40:08;;;;;;;8.55;7.95;;;;;;;;;;5061670;28;20633;-60
2021/06/19 04:42:39;;;;;;;7.60;7.10;;;;;;;;;;5067080;28;20188;-59
2021/06/19 04:45:09;;;;;;;8.13;7.63;;;;;;;;;;5070005;28;20744;-59
2021/06/19 04:47:34;;;;;;;7.23;6.60;;;;;;;;;;5062608;28;20599;-60
2021/06/19 04:50:00;;;;;;;7.63;7.13;;;;;;;;;;5054468;28;20660;-59
2021/06/19 04:52:27;;;;;;;7.63;7.13;;;;;;;;;;5064674;28;20242;-59
2021/06/19 04:54:53;;;;;;;8.23;7.53;;;;;;;;;;5067836;28;21413;-59
2021/06/19 04:57:18;;;;;;;7.70;7.20;;;;;;;;;;5065024;28;20648;-59
2021/06/19 04:59:44;;;;;;;7.50;6.80;;;;;;;;;;5066052;28;20658;-59
2021/06/19 05:02:09;;;;;;;7.13;6.63;;;;;;;;;;5063143;28;20606;-59
2021/06/19 05:04:34;;;;;;;8.00;7.50;;;;;;;;;;5055926;28;20241;-59
2021/06/19 05:06:59;;;;;;;7.63;7.05;;;;;;;;;;5054721;28;20179;-58
2021/06/19 05:09:24;;;;;;;7.70;7.20;;;;;;;;;;5054876;28;20210;-57
2021/06/19 05:11:49;;;;;;;7.80;7.30;;;;;;;;;;5054432;28;20601;-57
2021/06/19 05:14:15;;;;;;;7.65;7.05;;;;;;;;;;5057579;28;20270;-57
2021/06/19 05:16:40;;;;;;;7.40;6.93;;;;;;;;;;5043568;28;20183;-58
2021/06/19 05:19:05;;;;;;;7.50;7.00;;;;;;;;;;5040123;28;20290;-59
2021/06/19 05:21:30;;;;;;;7.93;7.30;;;;;;;;;;5048850;28;20183;-58
2021/06/19 05:23:55;;;;;;;9.75;6.93;;;;;;;;;;5055524;28;20178;-58
2021/06/19 05:26:20;;;;;;;6.80;6.30;;;;;;;;;;5062079;28;20183;-58
2021/06/19 05:28:46;;;;;;;7.23;6.73;;;;;;;;;;5067534;28;20232;-58
2021/06/19 05:31:11;;;;;;;7.27;6.70;;;;;;;;;;5064639;28;20574;-58
2021/06/19 05:33:36;;;;;;;7.20;6.70;;;;;;;;;;5057011;28;20172;-58
2021/06/19 05:36:01;;;;;;;7.93;7.43;;;;;;;;;;5046846;28;20182;-58
2021/06/19 05:38:26;;;;;;;6.70;6.30;;;;;;;;;;5058103;28;20203;-58
2021/06/19 05:40:51;;;;;;;6.50;6.10;;;;;;;;;;5043368;28;20176;-58
2021/06/19 05:43:17;;;;;;;7.10;6.67;;;;;;;;;;5049049;28;20174;-59
2021/06/19 05:45:42;;;;;;;7.00;6.50;;;;;;;;;;5057511;28;20953;-58
2021/06/19 05:48:07;;;;;;;6.83;6.43;;;;;;;;;;5059156;28;20259;-58
2021/06/19 05:50:32;;;;;;;7.33;6.83;;;;;;;;;;5057322;28;20629;-58
2021/06/19 05:52:58;;;;;;;7.77;7.07;;;;;;;;;;5062052;28;20436;-57
2021/06/19 05:55:23;;;;;;;7.30;6.90;;;;;;;;;;5069591;28;20215;-57
2021/06/19 05:57:48;;;;;;;7.37;6.97;;;;;;;;;;5065825;28;20175;-56
2021/06/19 06:00:13;;;;;;;7.17;6.70;;;;;;;;;;5052592;28;20200;-56
2021/06/19 06:02:40;;;;;;;7.20;6.80;;;;;;;;;;5066653;28;20176;-57
2021/06/19 06:05:05;;;;;;;7.17;6.70;;;;;;;;;;5061853;28;20172;-56
2021/06/19 06:07:30;;;;;;;8.30;7.63;;;;;;;;;;5067943;28;21151;-57
2021/06/19 06:09:55;;;;;;;8.55;7.95;;;;;;;;;;5066904;28;20329;-57
2021/06/19 06:12:20;;;;;;;7.90;7.40;;;;;;;;;;5053931;28;20194;-56
2021/06/19 06:14:45;;;;;;;8.02;7.53;;;;;;;;;;5065649;28;20175;-56
2021/06/19 06:17:11;;;;;;;8.07;7.33;;;;;;;;;;5059375;28;20275;-57
2021/06/19 06:19:36;;;;;;;8.17;7.53;;;;;;;;;;5059921;28;20202;-58
2021/06/19 06:22:02;;;;;;;9.10;8.30;;;;;;;;;;5077921;28;20173;-58
2021/06/19 06:24:27;;;;;;;9.07;8.33;;;;;;;;;;5055929;28;20176;-59
2021/06/19 06:26:52;;;;;;;8.50;7.90;;;;;;;;;;5055082;28;21160;-59
2021/06/19 06:29:18;;;;;;;9.03;8.43;;;;;;;;;;5065851;28;20270;-59
2021/06/19 06:31:43;;;;;;;8.70;8.00;;;;;;;;;;5060002;28;20584;-59
2021/06/19 06:34:08;;;;;;;8.85;8.18;;;;;;;;;;5045151;28;20198;-59
2021/06/19 06:36:33;;;;;;;10.70;8.67;;;;;;;;;;5039308;28;20207;-59
2021/06/19 06:39:02;;;;;;;9.17;8.37;;;;;;;;;;5049115;28;20226;-59
2021/06/19 06:41:27;;;;;;;8.93;8.23;;;;;;;;;;5054650;28;20203;-59
2021/06/19 06:43:53;;;;;;;9.43;8.73;;;;;;;;;;5052551;28;20655;-59
2021/06/19 06:46:18;;;;;;;8.25;7.75;;;;;;;;;;5054640;28;20242;-59
2021/06/19 06:48:43;;;;;;;8.90;8.32;;;;;;;;;;5043103;28;20691;-59
2021/06/19 06:51:08;;;;;;;9.30;8.48;;;;;;;;;;5051091;28;20274;-59
2021/06/19 06:53:33;;;;;;;9.57;8.95;;;;;;;;;;5046190;28;20254;-60
2021/06/19 06:55:58;;;;;;;9.32;8.55;;;;;;;;;;5048211;28;20220;-60
2021/06/19 06:58:23;;;;;;;9.73;8.90;;;;;;;;;;5046739;28;20223;-60
2021/06/19 07:00:49;;;;;;;9.65;9.02;;;;;;;;;;5041756;28;20423;-60
2021/06/19 07:03:14;;;;;;;9.50;8.63;;;;;;;;;;5059772;28;20613;-60
2021/06/19 07:05:39;;;;;;;10.13;9.27;;;;;;;;;;5048996;28;20156;-59
2021/06/19 07:08:04;;;;;;;9.00;8.40;;;;;;;;;;5060060;28;20907;-60
2021/06/19 07:10:29;;;;;;;9.63;9.03;;;;;;;;;;5042151;28;20231;-59
2021/06/19 07:12:54;;;;;;;9.13;8.23;;;;;;;;;;5055036;28;20236;-58
2021/06/19 07:15:20;;;;;;;9.02;8.32;;;;;;;;;;5063940;28;20681;-58
2021/06/19 07:17:46;;;;;;;8.80;8.20;;;;;;;;;;5056299;28;20199;-59
2021/06/19 07:20:12;;;;;;;9.20;8.63;;;;;;;;;;5065645;28;20263;-59
2021/06/19 07:22:37;;;;;;;10.10;9.20;;;;;;;;;;5057306;28;20593;-59
2021/06/19 07:25:06;;;;;;;9.80;9.00;;;;;;;;;;5061364;28;20195;-59
2021/06/19 07:27:31;;;;;;;9.50;8.77;;;;;;;;;;5048813;28;20184;-60
2021/06/19 07:29:57;;;;;;;8.80;8.20;;;;;;;;;;5045862;28;20606;-59
2021/06/19 07:32:23;;;;;;;9.10;8.40;;;;;;;;;;5047912;28;20186;-59
2021/06/19 07:34:48;;;;;;;9.40;8.70;;;;;;;;;;5042410;28;20176;-57
2021/06/19 07:37:13;;;;;;;9.20;8.60;;;;;;;;;;5045434;28;20203;-58
2021/06/19 07:39:39;;;;;;;9.83;9.13;;;;;;;;;;5045197;28;20200;-59
2021/06/19 07:42:04;;;;;;;9.73;9.13;;;;;;;;;;5052422;28;20207;-59
2021/06/19 07:44:31;;;;;;;9.37;8.80;;;;;;;;;;5061568;28;20546;-58
2021/06/19 07:46:56;;;;;;;9.93;9.10;;;;;;;;;;5059412;28;20770;-58
2021/06/19 07:49:21;;;;;;;10.02;9.20;;;;;;;;;;5040164;28;20668;-58
2021/06/19 07:51:46;;;;;;;9.30;8.65;;;;;;;;;;5044924;28;20163;-58
2021/06/19 07:54:11;;;;;;;10.37;9.67;;;;;;;;;;5062788;28;20219;-58
2021/06/19 07:56:37;;;;;;;9.30;8.77;;;;;;;;;;5064118;28;20197;-58
2021/06/19 07:59:02;;;;;;;9.47;8.60;;;;;;;;;;5049564;28;20549;-58
2021/06/19 08:01:27;;;;;;;9.13;8.43;;;;;;;;;;5060564;28;20640;-59
2021/06/19 08:03:52;;;;;;;10.33;9.63;;;;;;;;;;5057777;28;20175;-59
2021/06/19 08:06:18;;;;;;;10.07;9.47;;;;;;;;;;5063403;28;20672;-59
2021/06/19 08:08:43;;;;;;;10.40;9.60;;;;;;;;;;5063404;28;20182;-60
2021/06/19 08:11:08;;;;;;;10.75;9.95;;;;;;;;;;5064839;28;20715;-57
2021/06/19 08:13:33;;;;;;;10.33;9.63;;;;;;;;;;5059582;28;20206;-58
2021/06/19 08:16:00;;;;;;;9.43;8.80;;;;;;;;;;5058892;28;20175;-58
2021/06/19 08:18:25;;;;;;;9.40;8.60;;;;;;;;;;5056951;28;20211;-58
2021/06/19 08:20:50;;;;;;;8.90;8.33;;;;;;;;;;5064628;28;21146;-58
2021/06/19 08:23:16;;;;;;;9.60;8.90;;;;;;;;;;5061214;28;20254;-57
2021/06/19 08:25:41;;;;;;;9.00;8.30;;;;;;;;;;5062466;28;20212;-58
2021/06/19 08:28:06;;;;;;;8.63;8.13;;;;;;;;;;5060617;28;20187;-59
2021/06/19 08:30:31;;;;;;;9.05;8.35;;;;;;;;;;5041327;28;20255;-59
2021/06/19 08:32:56;;;;;;;8.67;8.07;;;;;;;;;;5042705;28;20688;-58
2021/06/19 08:35:22;;;;;;;8.87;8.30;;;;;;;;;;5058277;28;20595;-60
2021/06/19 08:37:47;;;;;;;8.80;8.20;;;;;;;;;;5064824;28;20641;-59
2021/06/19 08:40:12;;;;;;;9.70;8.90;;;;;;;;;;5058549;28;20199;-59
2021/06/19 08:42:37;;;;;;;10.03;9.43;;;;;;;;;;5049436;28;20184;-59
2021/06/19 08:45:03;;;;;;;10.40;9.40;;;;;;;;;;5040503;28;20169;-59
2021/06/19 08:47:35;;;;;;;9.20;8.53;;;;;;;;;;5040436;28;20176;-60
2021/06/19 08:50:08;;;;;;;9.90;9.20;;;;;;;;;;5042507;28;20191;-59
2021/06/19 08:52:35;;;;;;;9.63;8.73;;;;;;;;;;5047792;28;20674;-59
2021/06/19 08:55:00;;;;;;;9.37;8.77;;;;;;;;;;5063881;28;21186;-59
2021/06/19 08:57:25;;;;;;;10.17;9.40;;;;;;;;;;5062159;28;20700;-59
2021/06/19 08:59:51;;;;;;;9.77;9.02;;;;;;;;;;5054986;28;20204;-59
2021/06/19 09:02:17;;;;;;;9.80;9.20;;;;;;;;;;5038545;28;20650;-59
2021/06/19 09:04:58;;;;;;;9.80;9.10;;;;;;;;;;5059315;28;20593;-59
2021/06/19 09:07:38;;;;;;;9.77;9.17;;;;;;;;;;5063748;28;20579;-58
2021/06/19 09:10:22;;;;;;;9.27;8.53;;;;;;;;;;5060337;28;20677;-58
2021/06/19 09:13:02;;;;;;;10.30;9.60;;;;;;;;;;5042137;28;21178;-58
2021/06/19 09:15:29;;;;;;;9.20;8.60;;;;;;;;;;5056971;28;20629;-59
2021/06/19 09:18:13;;;;;;;10.00;9.30;;;;;;;;;;5048107;28;20667;-58
2021/06/19 09:20:39;;;;;;;9.90;9.30;;;;;;;;;;5046976;28;20693;-59
2021/06/19 09:23:05;;;;;;;10.30;9.60;;;;;;;;;;5064100;28;20620;-59
2021/06/19 09:25:30;;;;;;;11.03;10.33;;;;;;;;;;5044536;28;20916;-59
2021/06/19 09:27:57;;;;;;;10.13;9.43;;;;;;;;;;5044008;28;20606;-59
2021/06/19 09:30:22;;;;;;;10.07;9.47;;;;;;;;;;5039730;28;20172;-60
2021/06/19 09:32:56;;;;;;;10.40;9.80;;;;;;;;;;5045912;28;20605;-58
2021/06/19 09:35:24;;;;;;;10.90;10.00;;;;;;;;;;5045536;28;20230;-59
2021/06/19 09:37:50;;;;;;;10.27;9.57;;;;;;;;;;5057914;28;20666;-59
2021/06/19 09:40:19;;;;;;;10.03;9.43;;;;;;;;;;5063718;28;20686;-59
2021/06/19 09:42:44;;;;;;;10.87;10.07;;;;;;;;;;5056890;28;20594;-58
2021/06/19 09:45:17;;;;;;;9.50;8.97;;;;;;;;;;5057947;28;20604;-59
2021/06/19 09:47:42;;;;;;;10.53;9.93;;;;;;;;;;5063458;28;20698;-58
2021/06/19 09:50:07;;;;;;;10.47;9.70;;;;;;;;;;5061884;28;20569;-58
2021/06/19 09:52:32;;;;;;;10.53;9.93;;;;;;;;;;5043420;28;20957;-58
2021/06/19 09:54:58;;;;;;;11.20;10.50;;;;;;;;;;5054209;28;20273;-59
2021/06/19 09:57:36;;;;;;;10.60;9.90;;;;;;;;;;5059251;28;20242;-59
2021/06/19 10:00:02;;;;;;;10.57;9.77;;;;;;;;;;5060043;28;21002;-59
2021/06/19 10:02:27;;;;;;;11.67;10.60;;;;;;;;;;5058902;28;20605;-58
2021/06/19 10:04:56;;;;;;;10.50;9.87;;;;;;;;;;5063472;28;20167;-59
2021/06/19 10:07:22;;;;;;;11.50;10.77;;;;;;;;;;5043657;28;20214;-59
2021/06/19 10:09:48;;;;;;;10.13;9.53;;;;;;;;;;5057948;28;20609;-58
2021/06/19 10:12:13;;;;;;;10.00;9.40;;;;;;;;;;5051197;28;20208;-58
2021/06/19 10:14:38;;;;;;;10.90;10.20;;;;;;;;;;5047969;28;20780;-58
2021/06/19 10:17:04;;;;;;;11.30;10.60;;;;;;;;;;5044888;28;20643;-57
2021/06/19 10:19:29;;;;;;;10.87;10.20;;;;;;;;;;5046967;28;20250;-58
2021/06/19 10:21:56;;;;;;;11.57;10.83;;;;;;;;;;5047314;28;20164;-58
2021/06/19 10:24:22;;;;;;;11.23;10.50;;;;;;;;;;5044934;28;20599;-58
2021/06/19 10:26:48;;;;;;;11.60;10.80;;;;;;;;;;5047919;28;20612;-58
2021/06/19 10:29:14;;;;;;;11.30;10.50;;;;;;;;;;5059616;28;20601;-58
2021/06/19 10:31:40;;;;;;;11.10;10.50;;;;;;;;;;5057372;28;20590;-58
2021/06/19 10:34:18;;;;;;;10.70;10.10;;;;;;;;;;5059300;28;20171;-59
2021/06/19 10:36:43;;;;;;;10.33;9.60;;;;;;;;;;5063364;28;20688;-59
2021/06/19 10:39:08;;;;;;;11.27;10.50;;;;;;;;;;5045857;28;20800;-59
2021/06/19 10:41:42;;;;;;;11.90;10.80;;;;;;;;;;5043024;28;20179;-59
2021/06/19 10:44:07;;;;;;;11.10;10.40;;;;;;;;;;5047103;28;20176;-59
2021/06/19 10:46:34;;;;;;;10.73;10.13;;;;;;;;;;5054412;28;20732;-59
2021/06/19 10:49:00;;;;;;;10.60;9.90;;;;;;;;;;5055202;28;20175;-60
2021/06/19 10:51:30;;;;;;;11.23;10.47;;;;;;;;;;5061764;28;21555;-59
2021/06/19 10:54:07;;;;;;;10.57;9.87;;;;;;;;;;5052863;28;20660;-58
2021/06/19 10:56:52;;;;;;;11.37;10.67;;;;;;;;;;5062573;28;20637;-60
2021/06/19 10:59:21;;;;;;;11.10;10.20;;;;;;;;;;5058917;28;20984;-59
2021/06/19 11:01:47;;;;;;;11.00;10.30;;;;;;;;;;5052247;28;20971;-59
2021/06/19 11:04:31;;;;;;;10.70;10.10;;;;;;;;;;5046241;28;21130;-59
2021/06/19 11:06:56;;;;;;;11.10;10.10;;;;;;;;;;5047097;28;20176;-59
2021/06/19 11:09:34;;;;;;;10.82;10.13;;;;;;;;;;5045356;28;20717;-59
2021/06/19 11:12:04;;;;;;;11.17;10.57;;;;;;;;;;5062184;28;20171;-59
2021/06/19 11:14:38;;;;;;;10.50;9.70;;;;;;;;;;5060314;28;20598;-59
2021/06/19 11:17:03;;;;;;;10.13;9.53;;;;;;;;;;5046246;28;20566;-59
2021/06/19 11:19:33;;;;;;;10.80;10.10;;;;;;;;;;5043563;28;21253;-59
2021/06/19 11:22:17;;;;;;;10.63;10.03;;;;;;;;;;5042278;28;20172;-59
2021/06/19 11:25:02;;;;;;;10.30;9.70;;;;;;;;;;5047639;28;21214;-58
2021/06/19 11:27:54;;;;;;;9.87;9.37;;;;;;;;;;5063814;28;21005;-59
2021/06/19 11:30:37;;;;;;;10.90;10.30;;;;;;;;;;5056884;28;21130;-58
2021/06/19 11:33:19;;;;;;;10.03;9.43;;;;;;;;;;5050919;28;20593;-58
2021/06/19 11:35:46;;;;;;;9.57;9.03;;;;;;;;;;5060778;28;20618;-58
2021/06/19 11:38:11;;;;;;;10.50;9.90;;;;;;;;;;5062163;28;20597;-59
2021/06/19 11:40:37;;;;;;;10.67;9.97;;;;;;;;;;5063296;28;20594;-59
2021/06/19 11:43:03;;;;;;;10.43;9.73;;;;;;;;;;5080471;28;20704;-58
2021/06/19 11:45:28;;;;;;;10.70;10.10;;;;;;;;;;5060427;28;20187;-59
2021/06/19 11:48:10;;;;;;;10.90;10.30;;;;;;;;;;5064524;28;21165;-59
2021/06/19 11:50:39;;;;;;;10.63;9.93;;;;;;;;;;5061069;28;20720;-60
2021/06/19 11:53:23;;;;;;;9.90;9.30;;;;;;;;;;5067108;28;20621;-60
2021/06/19 11:55:48;;;;;;;10.33;9.73;;;;;;;;;;5048502;28;20651;-59
2021/06/19 11:58:13;;;;;;;10.33;9.63;;;;;;;;;;5051160;28;20602;-59
2021/06/19 12:00:54;;;;;;;9.55;9.05;;;;;;;;;;5057580;28;20187;-59
2021/06/19 12:03:22;;;;;;;9.10;8.60;;;;;;;;;;5060268;28;20175;-60
2021/06/19 12:05:48;;;;;;;10.80;9.83;;;;;;;;;;5057248;28;20802;-59
2021/06/19 12:08:13;;;;;;;9.37;8.77;;;;;;;;;;5058578;28;20592;-60
2021/06/19 12:10:38;;;;;;;7.80;7.20;;;;;;;;;;5059855;28;20758;-59
2021/06/19 12:13:04;;;;;;;8.40;7.80;;;;;;;;;;5059368;28;20674;-59
2021/06/19 12:15:30;;;;;;;8.13;7.53;;;;;;;;;;5064554;28;20313;-59
2021/06/19 12:17:55;;;;;;;8.97;8.17;;;;;;;;;;5079482;28;20696;-60
2021/06/19 12:20:21;;;;;;;8.10;7.60;;;;;;;;;;5068599;28;20211;-59
2021/06/19 12:22:46;;;;;;;7.83;7.43;;;;;;;;;;5068152;28;20266;-60
2021/06/19 12:25:12;;;;;;;8.10;7.60;;;;;;;;;;5046142;28;20184;-60
2021/06/19 12:27:37;;;;;;;8.60;8.00;;;;;;;;;;5056375;28;20241;-59
2021/06/19 12:30:02;;;;;;;9.10;8.40;;;;;;;;;;5045981;28;20172;-59
2021/06/19 12:32:29;;;;;;;8.33;7.83;;;;;;;;;;5081125;28;20194;-60
2021/06/19 12:34:56;;;;;;;9.40;8.60;;;;;;;;;;5069072;28;20216;-59
2021/06/19 12:37:27;;;;;;;8.17;7.77;;;;;;;;;;5058371;28;20610;-59
2021/06/19 12:39:52;;;;;;;9.00;8.33;;;;;;;;;;5048347;28;20653;-59
2021/06/19 12:42:36;;;;;;;8.93;8.33;;;;;;;;;;5052165;28;20607;-59
2021/06/19 12:45:04;;;;;;;9.80;9.30;;;;;;;;;;5063779;28;20247;-59
2021/06/19 12:47:34;;;;;;;8.90;8.30;;;;;;;;;;5078255;28;21022;-59
2021/06/19 12:49:59;;;;;;;9.50;8.70;;;;;;;;;;5058168;28;20606;-59
2021/06/19 12:52:24;;;;;;;9.25;8.75;;;;;;;;;;5073796;28;20637;-59
2021/06/19 12:55:08;;;;;;;9.85;9.20;;;;;;;;;;5062114;28;20211;-60
2021/06/19 12:57:33;;;;;;;9.70;9.20;;;;;;;;;;5073147;28;20205;-57
2021/06/19 12:59:58;;;;;;;8.67;7.97;;;;;;;;;;5052062;28;21426;-58
2021/06/19 13:02:24;;;;;;;7.80;7.40;;;;;;;;;;5062851;28;20597;-58
2021/06/19 13:04:49;;;;;;;9.15;8.55;;;;;;;;;;5066502;28;20709;-58
2021/06/19 13:07:16;;;;;;;8.10;7.50;;;;;;;;;;5076099;28;20167;-58
2021/06/19 13:09:47;;;;;;;7.63;7.03;;;;;;;;;;5063740;28;20234;-59
2021/06/19 13:12:12;;;;;;;7.53;7.03;;;;;;;;;;5045403;28;20571;-58
2021/06/19 13:14:37;;;;;;;7.57;6.97;;;;;;;;;;5059290;28;21177;-58
2021/06/19 13:17:13;;;;;;;7.33;6.93;;;;;;;;;;5061450;28;20176;-58
2021/06/19 13:19:40;;;;;;;7.40;7.00;;;;;;;;;;5048352;28;20246;-59
2021/06/19 13:22:05;;;;;;;6.60;6.20;;;;;;;;;;5062421;28;20940;-58
2021/06/19 13:24:32;;;;;;;7.55;6.95;;;;;;;;;;5072856;28;20598;-58
2021/06/19 13:27:09;;;;;;;7.83;7.23;;;;;;;;;;5068645;28;20186;-59
2021/06/19 13:29:34;;;;;;;8.23;7.60;;;;;;;;;;5055835;28;20607;-59
2021/06/19 13:32:00;;;;;;;7.70;7.20;;;;;;;;;;5058254;28;20618;-59
2021/06/19 13:34:26;;;;;;;7.67;7.07;;;;;;;;;;5063183;28;20239;-59
2021/06/19 13:37:01;;;;;;;8.23;7.83;;;;;;;;;;5063984;28;20629;-59
2021/06/19 13:39:28;;;;;;;8.23;7.63;;;;;;;;;;5058458;28;20559;-59
2021/06/19 13:41:57;;;;;;;8.27;7.57;;;;;;;;;;5057586;28;20698;-58
2021/06/19 13:44:24;;;;;;;8.43;7.93;;;;;;;;;;5069530;28;20695;-59
2021/06/19 13:46:50;;;;;;;7.50;7.00;;;;;;;;;;5070208;28;20618;-59
2021/06/19 13:49:16;;;;;;;7.93;7.43;;;;;;;;;;5062653;28;21362;-59
2021/06/19 13:51:43;;;;;;;8.17;7.67;;;;;;;;;;5063959;28;20667;-59
2021/06/19 13:54:08;;;;;;;8.07;7.67;;;;;;;;;;5060911;28;20652;-59
2021/06/19 13:56:33;;;;;;;9.17;8.57;;;;;;;;;;5081757;28;21082;-58
2021/06/19 13:58:59;;;;;;;9.90;9.15;;;;;;;;;;5065836;28;20195;-59
2021/06/19 14:01:24;;;;;;;9.50;8.83;;;;;;;;;;5063766;28;20175;-58
2021/06/19 14:03:50;;;;;;;8.97;8.47;;;;;;;;;;5055050;28;20180;-59
2021/06/19 14:06:15;;;;;;;9.10;8.50;;;;;;;;;;5049095;28;20175;-59
2021/06/19 14:08:40;;;;;;;9.20;8.60;;;;;;;;;;5050321;28;20188;-59
2021/06/19 14:11:05;;;;;;;9.20;8.63;;;;;;;;;;5044121;28;20541;-58
2021/06/19 14:13:30;;;;;;;9.23;8.73;;;;;;;;;;5043413;28;20254;-59
2021/06/19 14:15:56;;;;;;;9.40;8.90;;;;;;;;;;5047444;28;20184;-58
2021/06/19 14:18:21;;;;;;;9.35;8.85;;;;;;;;;;5045136;28;20176;-58
2021/06/19 14:20:46;;;;;;;8.45;7.95;;;;;;;;;;5047488;28;20573;-58
2021/06/19 14:23:11;;;;;;;8.70;8.10;;;;;;;;;;5041854;28;20176;-58
2021/06/19 14:25:36;;;;;;;8.25;7.85;;;;;;;;;;5056062;28;20175;-59
2021/06/19 14:28:03;;;;;;;9.30;8.80;;;;;;;;;;5061740;28;20813;-58
2021/06/19 14:30:28;;;;;;;9.47;8.97;;;;;;;;;;5063490;28;20262;-58
2021/06/19 14:32:53;;;;;;;9.53;8.93;;;;;;;;;;5066606;28;20688;-58
2021/06/19 14:35:18;;;;;;;9.23;8.63;;;;;;;;;;5056972;28;20184;-58
2021/06/19 14:37:47;;;;;;;9.90;9.20;;;;;;;;;;5056020;28;20183;-58
2021/06/19 14:40:13;;;;;;;8.80;8.20;;;;;;;;;;5062483;28;20211;-59
2021/06/19 14:42:38;;;;;;;8.60;8.10;;;;;;;;;;5043514;28;21138;-58
2021/06/19 14:45:03;;;;;;;8.95;8.45;;;;;;;;;;5042806;28;20226;-57
2021/06/19 14:47:29;;;;;;;9.33;8.83;;;;;;;;;;5064604;28;20179;-57
2021/06/19 14:49:54;;;;;;;9.63;9.10;;;;;;;;;;5065391;28;20612;-57
2021/06/19 14:52:19;;;;;;;8.90;8.30;;;;;;;;;;5064611;28;20270;-58
2021/06/19 14:54:47;;;;;;;8.30;7.80;;;;;;;;;;5062638;28;20459;-58
2021/06/19 14:57:13;;;;;;;8.37;7.87;;;;;;;;;;5061054;28;20553;-58
2021/06/19 14:59:38;;;;;;;9.67;8.93;;;;;;;;;;5066561;28;20641;-58